sensor_id;sensor_type;location;lat;lon;timestamp;pressure;altitude;pressure_sealevel;temperature;humidity
550;BME280;20066;48.764;9.176;2022-07-24T00:00:26;98490.09;;;26.79;50.63
550;BME280;20066;48.764;9.176;2022-07-24T00:02:54;98491.97;;;26.48;50.96
550;BME280;20066;48.764;9.176;2022-07-24T00:05:22;98494.53;;;26.51;50.45
550;BME280;20066;48.764;9.176;2022-07-24T00:07:51;98489.53;;;25.80;52.58
550;BME280;20066;48.764;9.176;2022-07-24T00:10:19;98494.00;;;25.77;52.64
550;BME280;20066;48.764;9.176;2022-07-24T00:12:47;98494.44;;;26.05;52.26
550;BME280;20066;48.764;9.176;2022-07-24T00:15:16;98494.25;;;25.94;52.46
550;BME280;20066;48.764;9.176;2022-07-24T00:17:45;98494.44;;;26.05;52.41
550;BME280;20066;48.764;9.176;2022-07-24T00:20:13;98496.19;;;25.88;52.45
550;BME280;20066;48.764;9.176;2022-07-24T00:22:41;98492.81;;;26.13;52.00
550;BME280;20066;48.764;9.176;2022-07-24T00:25:10;98491.41;;;26.03;52.54
550;BME280;20066;48.764;9.176;2022-07-24T00:27:38;98483.19;;;25.74;52.73
550;BME280;20066;48.764;9.176;2022-07-24T00:30:07;98486.44;;;25.72;53.37
550;BME280;20066;48.764;9.176;2022-07-24T00:32:35;98478.47;;;25.45;53.57
550;BME280;20066;48.764;9.176;2022-07-24T00:35:04;98487.94;;;25.73;52.77
550;BME280;20066;48.764;9.176;2022-07-24T00:37:31;98485.59;;;25.66;53.09
550;BME280;20066;48.764;9.176;2022-07-24T00:39:59;98489.69;;;25.41;53.66
550;BME280;20066;48.764;9.176;2022-07-24T00:42:28;98482.28;;;25.03;54.64
550;BME280;20066;48.764;9.176;2022-07-24T00:44:56;98487.03;;;25.17;54.51
550;BME280;20066;48.764;9.176;2022-07-24T00:47:25;98482.50;;;25.79;53.30
550;BME280;20066;48.764;9.176;2022-07-24T00:49:55;98486.09;;;25.85;53.13
550;BME280;20066;48.764;9.176;2022-07-24T00:52:23;98484.94;;;25.91;52.70
550;BME280;20066;48.764;9.176;2022-07-24T00:54:52;98486.75;;;25.94;52.22
550;BME280;20066;48.764;9.176;2022-07-24T00:57:20;98487.97;;;25.93;52.86
550;BME280;20066;48.764;9.176;2022-07-24T00:59:49;98489.00;;;25.31;54.18
550;BME280;20066;48.764;9.176;2022-07-24T01:02:16;98486.56;;;25.48;53.57
550;BME280;20066;48.764;9.176;2022-07-24T01:04:44;98488.09;;;25.49;53.30
550;BME280;20066;48.764;9.176;2022-07-24T01:07:14;98491.25;;;25.77;53.14
550;BME280;20066;48.764;9.176;2022-07-24T01:09:42;98488.38;;;25.86;52.63
550;BME280;20066;48.764;9.176;2022-07-24T01:12:10;98484.47;;;25.93;52.01
550;BME280;20066;48.764;9.176;2022-07-24T01:14:38;98489.28;;;25.63;52.55
550;BME280;20066;48.764;9.176;2022-07-24T01:17:07;98475.41;;;25.72;52.65
550;BME280;20066;48.764;9.176;2022-07-24T01:19:35;98492.13;;;25.83;52.75
550;BME280;20066;48.764;9.176;2022-07-24T01:22:04;98490.41;;;25.71;52.72
550;BME280;20066;48.764;9.176;2022-07-24T01:24:33;98481.13;;;25.39;53.22
550;BME280;20066;48.764;9.176;2022-07-24T01:27:00;98480.66;;;25.55;52.48
550;BME280;20066;48.764;9.176;2022-07-24T01:29:28;98485.00;;;25.62;52.71
550;BME280;20066;48.764;9.176;2022-07-24T01:31:56;98486.59;;;25.68;52.55
550;BME280;20066;48.764;9.176;2022-07-24T01:34:25;98480.66;;;25.55;52.24
550;BME280;20066;48.764;9.176;2022-07-24T01:36:53;98488.00;;;25.44;52.33
550;BME280;20066;48.764;9.176;2022-07-24T01:39:22;98491.09;;;24.92;54.68
550;BME280;20066;48.764;9.176;2022-07-24T01:41:50;98490.63;;;25.23;53.67
550;BME280;20066;48.764;9.176;2022-07-24T01:44:17;98495.47;;;25.58;52.84
550;BME280;20066;48.764;9.176;2022-07-24T01:46:45;98494.28;;;25.79;52.66
550;BME280;20066;48.764;9.176;2022-07-24T01:49:13;98485.34;;;25.84;51.81
550;BME280;20066;48.764;9.176;2022-07-24T01:51:41;98487.59;;;25.65;51.87
550;BME280;20066;48.764;9.176;2022-07-24T01:54:09;98492.00;;;25.78;52.11
550;BME280;20066;48.764;9.176;2022-07-24T01:56:38;98496.13;;;25.23;52.62
550;BME280;20066;48.764;9.176;2022-07-24T01:59:06;98485.88;;;25.09;53.40
550;BME280;20066;48.764;9.176;2022-07-24T02:01:37;98492.63;;;25.08;54.44
550;BME280;20066;48.764;9.176;2022-07-24T02:04:04;98488.72;;;25.15;54.04
550;BME280;20066;48.764;9.176;2022-07-24T02:06:32;98492.06;;;25.33;53.18
550;BME280;20066;48.764;9.176;2022-07-24T02:09:00;98487.09;;;25.23;53.41
550;BME280;20066;48.764;9.176;2022-07-24T02:11:28;98484.34;;;24.93;53.83
550;BME280;20066;48.764;9.176;2022-07-24T02:13:58;98483.31;;;25.06;54.03
550;BME280;20066;48.764;9.176;2022-07-24T02:16:26;98488.44;;;25.27;53.25
550;BME280;20066;48.764;9.176;2022-07-24T02:18:54;98487.88;;;25.23;53.38
550;BME280;20066;48.764;9.176;2022-07-24T02:21:22;98474.47;;;25.16;53.17
550;BME280;20066;48.764;9.176;2022-07-24T02:23:50;98485.03;;;25.32;52.48
550;BME280;20066;48.764;9.176;2022-07-24T02:26:17;98484.56;;;24.90;53.75
550;BME280;20066;48.764;9.176;2022-07-24T02:28:45;98484.19;;;24.97;53.77
550;BME280;20066;48.764;9.176;2022-07-24T02:31:14;98478.56;;;25.06;53.72
550;BME280;20066;48.764;9.176;2022-07-24T02:33:42;98475.72;;;25.15;52.99
550;BME280;20066;48.764;9.176;2022-07-24T02:36:10;98485.19;;;24.85;53.61
550;BME280;20066;48.764;9.176;2022-07-24T02:38:38;98484.72;;;24.48;54.79
550;BME280;20066;48.764;9.176;2022-07-24T02:41:06;98485.56;;;24.54;54.49
550;BME280;20066;48.764;9.176;2022-07-24T02:43:35;98483.84;;;24.18;55.18
550;BME280;20066;48.764;9.176;2022-07-24T02:46:03;98489.84;;;24.55;55.32
550;BME280;20066;48.764;9.176;2022-07-24T02:48:32;98491.47;;;24.62;53.32
550;BME280;20066;48.764;9.176;2022-07-24T02:51:00;98477.41;;;24.98;52.93
550;BME280;20066;48.764;9.176;2022-07-24T02:53:28;98486.91;;;24.82;52.34
550;BME280;20066;48.764;9.176;2022-07-24T02:55:55;98482.22;;;24.74;52.95
550;BME280;20066;48.764;9.176;2022-07-24T02:58:23;98483.41;;;24.82;53.03
550;BME280;20066;48.764;9.176;2022-07-24T03:00:51;98482.19;;;24.59;52.95
550;BME280;20066;48.764;9.176;2022-07-24T03:03:19;98488.38;;;24.45;53.17
550;BME280;20066;48.764;9.176;2022-07-24T03:05:48;98485.69;;;24.60;53.26
550;BME280;20066;48.764;9.176;2022-07-24T03:08:16;98485.19;;;24.85;52.55
550;BME280;20066;48.764;9.176;2022-07-24T03:10:44;98477.69;;;24.85;52.14
550;BME280;20066;48.764;9.176;2022-07-24T03:13:12;98484.63;;;24.57;52.55
550;BME280;20066;48.764;9.176;2022-07-24T03:15:40;98482.53;;;24.52;53.74
550;BME280;20066;48.764;9.176;2022-07-24T03:18:07;98489.47;;;24.24;53.68
550;BME280;20066;48.764;9.176;2022-07-24T03:20:48;98495.53;;;24.51;53.27
550;BME280;20066;48.764;9.176;2022-07-24T03:23:16;98492.16;;;24.33;54.11
550;BME280;20066;48.764;9.176;2022-07-24T03:25:44;98486.75;;;24.38;53.83
550;BME280;20066;48.764;9.176;2022-07-24T03:28:13;98492.19;;;24.47;53.80
550;BME280;20066;48.764;9.176;2022-07-24T03:30:41;98489.47;;;23.91;54.38
550;BME280;20066;48.764;9.176;2022-07-24T03:33:08;98494.25;;;24.38;53.39
550;BME280;20066;48.764;9.176;2022-07-24T03:35:36;98494.25;;;24.38;53.29
550;BME280;20066;48.764;9.176;2022-07-24T03:38:08;98487.63;;;24.44;54.14
550;BME280;20066;48.764;9.176;2022-07-24T03:40:36;98491.69;;;24.73;53.29
550;BME280;20066;48.764;9.176;2022-07-24T03:43:04;98494.22;;;24.62;54.23
550;BME280;20066;48.764;9.176;2022-07-24T03:45:32;98498.97;;;24.61;52.77
550;BME280;20066;48.764;9.176;2022-07-24T03:48:00;98485.53;;;24.15;53.71
550;BME280;20066;48.764;9.176;2022-07-24T03:50:28;98491.69;;;24.34;53.13
550;BME280;20066;48.764;9.176;2022-07-24T03:52:56;98490.09;;;24.42;52.96
550;BME280;20066;48.764;9.176;2022-07-24T03:55:25;98495.16;;;24.20;53.75
550;BME280;20066;48.764;9.176;2022-07-24T03:57:53;98501.41;;;24.21;53.65
550;BME280;20066;48.764;9.176;2022-07-24T04:00:20;98493.47;;;24.13;54.20
550;BME280;20066;48.764;9.176;2022-07-24T04:02:48;98492.00;;;23.70;54.92
550;BME280;20066;48.764;9.176;2022-07-24T04:05:16;98502.63;;;23.87;55.42
550;BME280;20066;48.764;9.176;2022-07-24T04:07:44;98498.34;;;23.86;55.50
550;BME280;20066;48.764;9.176;2022-07-24T04:10:11;98504.94;;;23.79;55.33
550;BME280;20066;48.764;9.176;2022-07-24T04:12:40;98506.56;;;23.95;55.80
550;BME280;20066;48.764;9.176;2022-07-24T04:15:09;98501.66;;;23.66;56.25
550;BME280;20066;48.764;9.176;2022-07-24T04:17:40;98509.88;;;23.99;55.21
550;BME280;20066;48.764;9.176;2022-07-24T04:20:10;98515.22;;;24.02;55.10
550;BME280;20066;48.764;9.176;2022-07-24T04:22:38;98519.34;;;24.31;54.15
550;BME280;20066;48.764;9.176;2022-07-24T04:25:07;98520.53;;;24.15;54.53
550;BME280;20066;48.764;9.176;2022-07-24T04:27:35;98520.38;;;24.42;53.96
550;BME280;20066;48.764;9.176;2022-07-24T04:30:05;98518.13;;;24.55;54.05
550;BME280;20066;48.764;9.176;2022-07-24T04:32:33;98527.44;;;24.34;54.28
550;BME280;20066;48.764;9.176;2022-07-24T04:35:01;98528.00;;;24.38;54.19
550;BME280;20066;48.764;9.176;2022-07-24T04:37:29;98523.13;;;24.42;54.73
550;BME280;20066;48.764;9.176;2022-07-24T04:39:56;98520.88;;;23.99;55.43
550;BME280;20066;48.764;9.176;2022-07-24T04:42:24;98522.06;;;24.07;56.32
550;BME280;20066;48.764;9.176;2022-07-24T04:44:52;98529.03;;;24.50;54.67
550;BME280;20066;48.764;9.176;2022-07-24T04:47:21;98530.19;;;24.58;53.53
550;BME280;20066;48.764;9.176;2022-07-24T04:49:49;98525.63;;;24.55;54.17
550;BME280;20066;48.764;9.176;2022-07-24T04:52:17;98523.22;;;24.48;53.37
550;BME280;20066;48.764;9.176;2022-07-24T04:54:44;98527.34;;;24.67;54.18
550;BME280;20066;48.764;9.176;2022-07-24T04:57:12;98529.53;;;24.63;53.30
550;BME280;20066;48.764;9.176;2022-07-24T04:59:40;98529.59;;;24.54;53.52
550;BME280;20066;48.764;9.176;2022-07-24T05:02:08;98527.59;;;24.31;54.46
550;BME280;20066;48.764;9.176;2022-07-24T05:04:37;98533.34;;;24.42;54.03
550;BME280;20066;48.764;9.176;2022-07-24T05:07:05;98537.63;;;24.19;54.49
550;BME280;20066;48.764;9.176;2022-07-24T05:09:33;98540.44;;;24.58;53.98
550;BME280;20066;48.764;9.176;2022-07-24T05:12:00;98543.19;;;24.81;53.25
550;BME280;20066;48.764;9.176;2022-07-24T05:14:28;98541.88;;;24.68;52.94
550;BME280;20066;48.764;9.176;2022-07-24T05:16:56;98542.53;;;24.86;52.93
550;BME280;20066;48.764;9.176;2022-07-24T05:19:24;98548.50;;;24.85;52.16
550;BME280;20066;48.764;9.176;2022-07-24T05:21:53;98547.56;;;24.88;52.98
550;BME280;20066;48.764;9.176;2022-07-24T05:24:21;98547.31;;;25.15;52.38
550;BME280;20066;48.764;9.176;2022-07-24T05:26:48;98551.97;;;25.24;51.64
550;BME280;20066;48.764;9.176;2022-07-24T05:29:16;98543.72;;;25.24;51.69
550;BME280;20066;48.764;9.176;2022-07-24T05:31:44;98546.16;;;24.69;52.68
550;BME280;20066;48.764;9.176;2022-07-24T05:34:13;98543.88;;;25.44;51.38
550;BME280;20066;48.764;9.176;2022-07-24T05:36:40;98547.16;;;24.80;52.52
550;BME280;20066;48.764;9.176;2022-07-24T05:39:09;98539.56;;;24.51;53.09
550;BME280;20066;48.764;9.176;2022-07-24T05:41:37;98532.91;;;25.20;51.74
550;BME280;20066;48.764;9.176;2022-07-24T05:44:05;98531.75;;;25.12;51.72
550;BME280;20066;48.764;9.176;2022-07-24T05:46:33;98532.78;;;25.00;53.04
550;BME280;20066;48.764;9.176;2022-07-24T05:49:01;98534.69;;;25.38;51.16
550;BME280;20066;48.764;9.176;2022-07-24T05:51:29;98528.38;;;24.55;52.83
550;BME280;20066;48.764;9.176;2022-07-24T05:53:57;98532.84;;;24.91;52.06
550;BME280;20066;48.764;9.176;2022-07-24T05:56:26;98524.31;;;24.89;52.20
550;BME280;20066;48.764;9.176;2022-07-24T05:58:54;98538.13;;;25.18;50.61
550;BME280;20066;48.764;9.176;2022-07-24T06:01:22;98526.63;;;25.79;50.89
550;BME280;20066;48.764;9.176;2022-07-24T06:03:49;98535.88;;;24.93;51.59
550;BME280;20066;48.764;9.176;2022-07-24T06:06:17;98530.72;;;25.68;50.09
550;BME280;20066;48.764;9.176;2022-07-24T06:08:45;98533.28;;;25.72;50.53
550;BME280;20066;48.764;9.176;2022-07-24T06:11:13;98528.03;;;26.03;49.07
550;BME280;20066;48.764;9.176;2022-07-24T06:13:42;98529.44;;;26.14;48.83
550;BME280;20066;48.764;9.176;2022-07-24T06:16:10;98529.22;;;26.17;47.89
550;BME280;20066;48.764;9.176;2022-07-24T06:18:38;98536.38;;;25.06;50.40
550;BME280;20066;48.764;9.176;2022-07-24T06:21:06;98532.84;;;25.94;48.44
550;BME280;20066;48.764;9.176;2022-07-24T06:23:34;98535.22;;;25.51;49.02
550;BME280;20066;48.764;9.176;2022-07-24T06:26:02;98528.56;;;25.43;49.32
550;BME280;20066;48.764;9.176;2022-07-24T06:28:30;98535.50;;;26.38;47.55
550;BME280;20066;48.764;9.176;2022-07-24T06:30:59;98540.94;;;25.97;48.06
550;BME280;20066;48.764;9.176;2022-07-24T06:33:29;98539.06;;;25.89;48.05
550;BME280;20066;48.764;9.176;2022-07-24T06:35:59;98549.28;;;26.18;47.43
550;BME280;20066;48.764;9.176;2022-07-24T06:38:26;98541.00;;;26.18;48.17
550;BME280;20066;48.764;9.176;2022-07-24T06:40:55;98532.88;;;26.29;47.40
550;BME280;20066;48.764;9.176;2022-07-24T06:43:23;98532.56;;;26.82;47.22
550;BME280;20066;48.764;9.176;2022-07-24T06:45:51;98531.84;;;26.26;46.86
550;BME280;20066;48.764;9.176;2022-07-24T06:48:20;98528.44;;;25.67;47.96
550;BME280;20066;48.764;9.176;2022-07-24T06:50:49;98529.72;;;26.76;45.42
550;BME280;20066;48.764;9.176;2022-07-24T06:53:17;98532.53;;;26.62;47.04
550;BME280;20066;48.764;9.176;2022-07-24T06:55:45;98526.59;;;27.35;44.57
550;BME280;20066;48.764;9.176;2022-07-24T06:58:13;98527.94;;;27.45;44.91
550;BME280;20066;48.764;9.176;2022-07-24T07:00:41;98533.97;;;27.44;44.64
550;BME280;20066;48.764;9.176;2022-07-24T07:03:09;98522.00;;;27.89;43.96
550;BME280;20066;48.764;9.176;2022-07-24T07:05:40;98528.59;;;27.35;43.53
550;BME280;20066;48.764;9.176;2022-07-24T07:08:08;98529.03;;;27.53;43.44
550;BME280;20066;48.764;9.176;2022-07-24T07:10:39;98529.38;;;26.49;46.04
550;BME280;20066;48.764;9.176;2022-07-24T07:13:07;98529.53;;;26.60;46.68
550;BME280;20066;48.764;9.176;2022-07-24T07:15:35;98520.53;;;26.24;47.09
550;BME280;20066;48.764;9.176;2022-07-24T07:18:03;98521.78;;;26.64;46.82
550;BME280;20066;48.764;9.176;2022-07-24T07:20:31;98525.44;;;26.55;47.35
550;BME280;20066;48.764;9.176;2022-07-24T07:23:00;98533.13;;;26.11;50.07
550;BME280;20066;48.764;9.176;2022-07-24T07:25:28;98526.19;;;27.22;47.39
550;BME280;20066;48.764;9.176;2022-07-24T07:27:56;98522.59;;;27.36;47.08
550;BME280;20066;48.764;9.176;2022-07-24T07:30:23;98522.75;;;26.40;49.54
550;BME280;20066;48.764;9.176;2022-07-24T07:32:51;98527.84;;;26.88;48.64
550;BME280;20066;48.764;9.176;2022-07-24T07:35:19;98522.31;;;27.34;47.73
550;BME280;20066;48.764;9.176;2022-07-24T07:37:53;98530.13;;;27.67;47.34
550;BME280;20066;48.764;9.176;2022-07-24T07:40:24;98528.13;;;27.99;47.35
550;BME280;20066;48.764;9.176;2022-07-24T07:42:51;98531.72;;;28.64;45.49
550;BME280;20066;48.764;9.176;2022-07-24T07:45:19;98526.13;;;29.52;44.02
550;BME280;20066;48.764;9.176;2022-07-24T07:47:47;98530.25;;;28.69;44.88
550;BME280;20066;48.764;9.176;2022-07-24T07:50:15;98529.56;;;28.96;44.03
550;BME280;20066;48.764;9.176;2022-07-24T07:52:43;98532.56;;;28.33;45.13
550;BME280;20066;48.764;9.176;2022-07-24T07:55:11;98531.44;;;28.09;46.05
550;BME280;20066;48.764;9.176;2022-07-24T07:57:41;98542.84;;;27.53;47.08
550;BME280;20066;48.764;9.176;2022-07-24T08:00:29;98536.84;;;28.83;43.54
550;BME280;20066;48.764;9.176;2022-07-24T08:02:57;98537.25;;;29.63;42.14
550;BME280;20066;48.764;9.176;2022-07-24T08:05:25;98534.69;;;29.37;42.01
550;BME280;20066;48.764;9.176;2022-07-24T08:07:53;98532.56;;;31.07;42.75
550;BME280;20066;48.764;9.176;2022-07-24T08:10:21;98533.16;;;29.08;41.28
550;BME280;20066;48.764;9.176;2022-07-24T08:12:51;98529.16;;;30.84;39.48
550;BME280;20066;48.764;9.176;2022-07-24T08:15:19;98527.38;;;31.63;38.07
550;BME280;20066;48.764;9.176;2022-07-24T08:17:51;98526.09;;;30.87;38.64
550;BME280;20066;48.764;9.176;2022-07-24T08:20:19;98532.31;;;28.91;41.40
550;BME280;20066;48.764;9.176;2022-07-24T08:22:47;98532.97;;;30.75;37.63
550;BME280;20066;48.764;9.176;2022-07-24T08:25:15;98524.91;;;29.69;39.58
550;BME280;20066;48.764;9.176;2022-07-24T08:27:45;98524.88;;;29.36;39.69
550;BME280;20066;48.764;9.176;2022-07-24T08:30:15;98526.59;;;30.22;37.69
550;BME280;20066;48.764;9.176;2022-07-24T08:32:43;98522.13;;;29.64;38.24
550;BME280;20066;48.764;9.176;2022-07-24T08:35:11;98525.34;;;31.93;35.02
550;BME280;20066;48.764;9.176;2022-07-24T08:37:41;98516.22;;;31.33;35.25
550;BME280;20066;48.764;9.176;2022-07-24T08:40:10;98517.72;;;32.85;33.10
550;BME280;20066;48.764;9.176;2022-07-24T08:42:39;98515.50;;;34.59;30.16
550;BME280;20066;48.764;9.176;2022-07-24T08:45:07;98505.94;;;32.93;33.13
550;BME280;20066;48.764;9.176;2022-07-24T08:47:38;98501.41;;;29.93;37.85
550;BME280;20066;48.764;9.176;2022-07-24T08:50:08;98493.59;;;31.48;35.44
550;BME280;20066;48.764;9.176;2022-07-24T08:52:37;98504.44;;;32.92;34.28
550;BME280;20066;48.764;9.176;2022-07-24T08:55:11;98501.47;;;32.65;34.24
550;BME280;20066;48.764;9.176;2022-07-24T08:57:39;98503.88;;;31.58;34.58
550;BME280;20066;48.764;9.176;2022-07-24T09:00:07;98512.31;;;30.65;38.13
550;BME280;20066;48.764;9.176;2022-07-24T09:02:40;98500.09;;;31.86;34.72
550;BME280;20066;48.764;9.176;2022-07-24T09:05:08;98506.72;;;31.83;33.81
550;BME280;20066;48.764;9.176;2022-07-24T09:07:37;98512.84;;;34.40;31.54
550;BME280;20066;48.764;9.176;2022-07-24T09:10:07;98508.75;;;34.54;32.99
550;BME280;20066;48.764;9.176;2022-07-24T09:12:37;98503.16;;;32.74;31.87
550;BME280;20066;48.764;9.176;2022-07-24T09:15:14;98497.88;;;33.08;32.26
550;BME280;20066;48.764;9.176;2022-07-24T09:17:51;98502.25;;;31.98;33.24
550;BME280;20066;48.764;9.176;2022-07-24T09:20:21;98500.00;;;31.67;33.70
550;BME280;20066;48.764;9.176;2022-07-24T09:22:50;98496.41;;;31.42;34.76
550;BME280;20066;48.764;9.176;2022-07-24T09:25:20;98497.84;;;31.19;35.41
550;BME280;20066;48.764;9.176;2022-07-24T09:27:49;98503.03;;;30.98;41.03
550;BME280;20066;48.764;9.176;2022-07-24T09:30:23;98502.44;;;29.39;37.60
550;BME280;20066;48.764;9.176;2022-07-24T09:32:54;98497.69;;;31.06;35.46
550;BME280;20066;48.764;9.176;2022-07-24T09:35:24;98492.63;;;30.57;38.74
550;BME280;20066;48.764;9.176;2022-07-24T09:37:56;98497.16;;;31.43;34.92
550;BME280;20066;48.764;9.176;2022-07-24T09:40:28;98496.09;;;32.30;32.62
550;BME280;20066;48.764;9.176;2022-07-24T09:43:12;98499.09;;;30.82;35.75
550;BME280;20066;48.764;9.176;2022-07-24T09:46:01;98506.13;;;32.38;34.32
550;BME280;20066;48.764;9.176;2022-07-24T09:48:33;98494.03;;;32.55;33.32
550;BME280;20066;48.764;9.176;2022-07-24T09:51:02;98488.56;;;30.70;35.29
550;BME280;20066;48.764;9.176;2022-07-24T09:53:33;98491.97;;;30.87;34.89
550;BME280;20066;48.764;9.176;2022-07-24T09:56:09;98490.16;;;30.95;34.07
550;BME280;20066;48.764;9.176;2022-07-24T09:58:39;98490.25;;;30.84;34.18
550;BME280;20066;48.764;9.176;2022-07-24T10:01:08;98497.50;;;30.35;35.07
550;BME280;20066;48.764;9.176;2022-07-24T10:03:42;98489.47;;;30.31;35.60
550;BME280;20066;48.764;9.176;2022-07-24T10:06:12;98487.97;;;28.80;38.00
550;BME280;20066;48.764;9.176;2022-07-24T10:08:43;98491.31;;;29.00;37.24
550;BME280;20066;48.764;9.176;2022-07-24T10:11:12;98486.72;;;30.20;37.38
550;BME280;20066;48.764;9.176;2022-07-24T10:13:41;98482.41;;;30.30;35.92
550;BME280;20066;48.764;9.176;2022-07-24T10:16:26;98485.56;;;29.37;37.51
550;BME280;20066;48.764;9.176;2022-07-24T10:18:57;98491.59;;;33.66;30.70
550;BME280;20066;48.764;9.176;2022-07-24T10:21:27;98483.16;;;33.07;30.56
550;BME280;20066;48.764;9.176;2022-07-24T10:27:23;98475.22;;;31.93;32.16
550;BME280;20066;48.764;9.176;2022-07-24T10:29:52;98473.75;;;33.10;33.18
550;BME280;20066;48.764;9.176;2022-07-24T10:32:21;98469.94;;;32.95;30.86
550;BME280;20066;48.764;9.176;2022-07-24T10:35:05;98472.91;;;33.15;30.39
550;BME280;20066;48.764;9.176;2022-07-24T10:37:41;98472.00;;;31.29;32.42
550;BME280;20066;48.764;9.176;2022-07-24T10:40:23;98470.22;;;32.54;31.17
550;BME280;20066;48.764;9.176;2022-07-24T10:43:09;98468.25;;;32.05;31.97
550;BME280;20066;48.764;9.176;2022-07-24T10:45:39;98475.81;;;33.68;29.24
550;BME280;20066;48.764;9.176;2022-07-24T10:48:31;98466.25;;;35.03;27.73
550;BME280;20066;48.764;9.176;2022-07-24T10:51:11;98466.88;;;34.75;28.36
550;BME280;20066;48.764;9.176;2022-07-24T10:53:48;98467.50;;;37.84;24.04
550;BME280;20066;48.764;9.176;2022-07-24T10:56:28;98462.22;;;36.02;25.88
550;BME280;20066;48.764;9.176;2022-07-24T10:59:06;98457.59;;;37.07;25.80
550;BME280;20066;48.764;9.176;2022-07-24T11:01:38;98459.53;;;36.69;25.76
550;BME280;20066;48.764;9.176;2022-07-24T11:04:26;98463.88;;;39.34;22.37
550;BME280;20066;48.764;9.176;2022-07-24T11:07:07;98453.41;;;41.45;21.44
550;BME280;20066;48.764;9.176;2022-07-24T11:09:54;98457.53;;;42.39;19.25
550;BME280;20066;48.764;9.176;2022-07-24T11:12:29;98451.34;;;38.15;23.09
550;BME280;20066;48.764;9.176;2022-07-24T11:15:05;98445.63;;;36.48;25.22
550;BME280;20066;48.764;9.176;2022-07-24T11:18:13;98449.91;;;37.99;22.90
550;BME280;20066;48.764;9.176;2022-07-24T11:20:41;98440.91;;;36.35;25.22
550;BME280;20066;48.764;9.176;2022-07-24T11:23:20;98437.69;;;40.18;21.96
550;BME280;20066;48.764;9.176;2022-07-24T11:25:49;98433.38;;;39.65;20.69
550;BME280;20066;48.764;9.176;2022-07-24T11:28:17;98427.34;;;40.03;21.79
550;BME280;20066;48.764;9.176;2022-07-24T11:30:45;98433.97;;;39.81;21.13
550;BME280;20066;48.764;9.176;2022-07-24T11:33:20;98434.91;;;42.10;18.62
550;BME280;20066;48.764;9.176;2022-07-24T11:35:48;98432.66;;;41.99;20.11
550;BME280;20066;48.764;9.176;2022-07-24T11:38:16;98426.94;;;38.98;22.38
550;BME280;20066;48.764;9.176;2022-07-24T11:40:45;98426.66;;;34.18;27.19
550;BME280;20066;48.764;9.176;2022-07-24T11:43:13;98418.84;;;35.67;25.93
550;BME280;20066;48.764;9.176;2022-07-24T11:45:51;98417.38;;;36.02;26.13
550;BME280;20066;48.764;9.176;2022-07-24T11:48:19;98419.56;;;39.52;23.87
550;BME280;20066;48.764;9.176;2022-07-24T11:51:03;98421.84;;;42.74;18.49
550;BME280;20066;48.764;9.176;2022-07-24T11:53:51;98413.19;;;36.24;24.88
550;BME280;20066;48.764;9.176;2022-07-24T11:56:20;98403.66;;;36.93;24.20
550;BME280;20066;48.764;9.176;2022-07-24T11:58:48;98410.44;;;41.01;20.08
550;BME280;20066;48.764;9.176;2022-07-24T12:01:19;98399.66;;;40.36;20.47
550;BME280;20066;48.764;9.176;2022-07-24T12:03:49;98409.38;;;40.43;20.36
550;BME280;20066;48.764;9.176;2022-07-24T12:06:18;98403.47;;;41.96;18.55
550;BME280;20066;48.764;9.176;2022-07-24T12:08:46;98399.91;;;38.37;22.38
550;BME280;20066;48.764;9.176;2022-07-24T12:11:21;98393.22;;;39.15;20.80
550;BME280;20066;48.764;9.176;2022-07-24T12:13:49;98388.34;;;38.18;21.84
550;BME280;20066;48.764;9.176;2022-07-24T12:16:23;98375.22;;;36.67;23.96
550;BME280;20066;48.764;9.176;2022-07-24T12:18:51;98385.53;;;42.61;17.97
550;BME280;20066;48.764;9.176;2022-07-24T12:21:19;98378.38;;;43.01;17.43
550;BME280;20066;48.764;9.176;2022-07-24T12:23:46;98375.31;;;41.31;18.68
550;BME280;20066;48.764;9.176;2022-07-24T12:26:14;98380.06;;;43.67;17.17
550;BME280;20066;48.764;9.176;2022-07-24T12:28:44;98370.22;;;46.52;14.74
550;BME280;20066;48.764;9.176;2022-07-24T12:31:11;98371.53;;;45.62;15.36
550;BME280;20066;48.764;9.176;2022-07-24T12:33:39;98369.91;;;50.66;11.51
550;BME280;20066;48.764;9.176;2022-07-24T12:36:10;98361.00;;;44.92;17.02
550;BME280;20066;48.764;9.176;2022-07-24T12:38:41;98360.88;;;46.24;14.63
550;BME280;20066;48.764;9.176;2022-07-24T12:41:10;98355.81;;;49.28;13.03
550;BME280;20066;48.764;9.176;2022-07-24T12:43:50;98347.50;;;42.14;17.75
550;BME280;20066;48.764;9.176;2022-07-24T12:46:19;98340.75;;;41.23;18.55
550;BME280;20066;48.764;9.176;2022-07-24T12:48:59;98336.97;;;43.17;17.64
550;BME280;20066;48.764;9.176;2022-07-24T12:51:43;98348.25;;;43.48;17.30
550;BME280;20066;48.764;9.176;2022-07-24T12:54:16;98332.31;;;41.32;18.33
550;BME280;20066;48.764;9.176;2022-07-24T12:56:45;98336.97;;;46.04;15.70
550;BME280;20066;48.764;9.176;2022-07-24T12:59:25;98337.25;;;48.96;12.24
550;BME280;20066;48.764;9.176;2022-07-24T13:01:54;98325.88;;;45.22;14.90
550;BME280;20066;48.764;9.176;2022-07-24T13:04:24;98330.06;;;46.74;15.14
550;BME280;20066;48.764;9.176;2022-07-24T13:06:55;98328.03;;;42.49;17.04
550;BME280;20066;48.764;9.176;2022-07-24T13:09:24;98311.94;;;43.34;17.27
550;BME280;20066;48.764;9.176;2022-07-24T13:11:53;98312.59;;;44.78;15.50
550;BME280;20066;48.764;9.176;2022-07-24T13:14:24;98309.41;;;40.72;18.87
550;BME280;20066;48.764;9.176;2022-07-24T13:16:52;98305.03;;;38.38;21.82
550;BME280;20066;48.764;9.176;2022-07-24T13:19:21;98295.56;;;38.18;22.83
550;BME280;20066;48.764;9.176;2022-07-24T13:21:49;98293.44;;;37.31;23.95
550;BME280;20066;48.764;9.176;2022-07-24T13:24:17;98296.06;;;36.38;24.19
550;BME280;20066;48.764;9.176;2022-07-24T13:26:48;98290.44;;;36.30;24.43
550;BME280;20066;48.764;9.176;2022-07-24T13:29:16;98284.13;;;36.60;24.85
550;BME280;20066;48.764;9.176;2022-07-24T13:31:45;98283.69;;;39.02;23.65
550;BME280;20066;48.764;9.176;2022-07-24T13:34:13;98284.28;;;40.30;20.05
550;BME280;20066;48.764;9.176;2022-07-24T13:36:41;98280.69;;;41.80;18.41
550;BME280;20066;48.764;9.176;2022-07-24T13:39:13;98280.53;;;41.10;19.58